BTY8538 GCRR-LEZL
Flight info
| Callsign | BTY8538 |
|---|---|
| Flight time | 1h 39m |
| Altitude | 38000 |
| Route | KORAL UG5 SONSO DCT NIRAL UN871 ADUBI DCT VJF |
| Aircraft | A320/M-SDE3FGHIRWY/LB1 |
Departure
| Time | 2026-04-23 18:48 |
|---|---|
| Airport | César Manrique-Lanzarote Airport (GCRR) |
Arrival
| Time | 2026-04-23 20:28 |
|---|---|
| Airport | Seville Airport (LEZL) |
| Time | Latitude | Longitude | Altitude | Speed | Heading |
|---|---|---|---|---|---|
| 2026-04-23 18:19 | 28.94968 | -13.60781 | 50 ft | 0 kts | 296° |
| 2026-04-23 18:40 | 28.94958 | -13.60759 | 49 ft | 4 kts | 295° |
| 2026-04-23 18:40 | 28.94947 | -13.60731 | 49 ft | 3 kts | 294° |
| 2026-04-23 18:40 | 28.94939 | -13.60708 | 49 ft | 4 kts | 274° |
| 2026-04-23 18:40 | 28.94944 | -13.60680 | 49 ft | 4 kts | 230° |
| 2026-04-23 18:41 | 28.94963 | -13.60662 | 45 ft | 2 kts | 207° |
| 2026-04-23 18:41 | 28.94965 | -13.60661 | 45 ft | 0 kts | 206° |
| 2026-04-23 18:43 | 28.94959 | -13.60664 | 46 ft | 3 kts | 206° |
| 2026-04-23 18:44 | 28.94946 | -13.60672 | 47 ft | 2 kts | 206° |
| 2026-04-23 18:44 | 28.94907 | -13.60663 | 48 ft | 9 kts | 128° |
| 2026-04-23 18:44 | 28.94880 | -13.60606 | 50 ft | 8 kts | 116° |
| 2026-04-23 18:44 | 28.94831 | -13.60572 | 50 ft | 16 kts | 190° |
| 2026-04-23 18:45 | 28.94720 | -13.60629 | 50 ft | 17 kts | 206° |
| 2026-04-23 18:45 | 28.94614 | -13.60690 | 45 ft | 18 kts | 207° |
| 2026-04-23 18:45 | 28.94489 | -13.60763 | 35 ft | 22 kts | 206° |
| 2026-04-23 18:45 | 28.94338 | -13.60849 | 30 ft | 25 kts | 206° |
| 2026-04-23 18:46 | 28.94177 | -13.60943 | 27 ft | 27 kts | 207° |
| 2026-04-23 18:46 | 28.94005 | -13.61043 | 27 ft | 29 kts | 207° |
| 2026-04-23 18:46 | 28.93822 | -13.61150 | 24 ft | 30 kts | 206° |
| 2026-04-23 18:46 | 28.93695 | -13.61220 | 24 ft | 10 kts | 198° |
| 2026-04-23 18:47 | 28.93644 | -13.61190 | 24 ft | 9 kts | 121° |
| 2026-04-23 18:47 | 28.93613 | -13.61076 | 28 ft | 18 kts | 69° |
| 2026-04-23 18:47 | 28.93671 | -13.61028 | 29 ft | 0 kts | 26° |
| 2026-04-23 18:47 | 28.93703 | -13.61010 | 26 ft | 30 kts | 27° |
| 2026-04-23 18:48 | 28.94125 | -13.60768 | 29 ft | 102 kts | 27° |
| 2026-04-23 18:48 | 28.94932 | -13.60315 | 65 ft | 153 kts | 24° |
| 2026-04-23 18:48 | 28.95883 | -13.59703 | 649 ft | 158 kts | 29° |
| 2026-04-23 18:48 | 28.96779 | -13.58983 | 1436 ft | 156 kts | 34° |
| 2026-04-23 18:49 | 28.97653 | -13.58232 | 2083 ft | 162 kts | 33° |
| 2026-04-23 18:49 | 28.98611 | -13.57415 | 2379 ft | 182 kts | 32° |
| 2026-04-23 18:49 | 28.99686 | -13.56502 | 2612 ft | 204 kts | 32° |
| 2026-04-23 18:49 | 29.00862 | -13.55462 | 2932 ft | 226 kts | 39° |
| 2026-04-23 18:50 | 29.01618 | -13.54576 | 3225 ft | 243 kts | 44° |
| 2026-04-23 18:50 | 29.03123 | -13.52474 | 4084 ft | 263 kts | 47° |
| 2026-04-23 18:50 | 29.04255 | -13.50800 | 4918 ft | 269 kts | 49° |
| 2026-04-23 18:50 | 29.05412 | -13.49091 | 5714 ft | 275 kts | 49° |
| 2026-04-23 18:51 | 29.06604 | -13.47357 | 6518 ft | 280 kts | 48° |
| 2026-04-23 18:51 | 29.07825 | -13.45606 | 7308 ft | 284 kts | 48° |
| 2026-04-23 18:51 | 29.09082 | -13.43835 | 8057 ft | 289 kts | 45° |
| 2026-04-23 18:51 | 29.10649 | -13.42422 | 8758 ft | 289 kts | 22° |
| 2026-04-23 18:52 | 29.12485 | -13.41445 | 9528 ft | 293 kts | 21° |
| 2026-04-23 18:52 | 29.14357 | -13.40466 | 10249 ft | 299 kts | 20° |
| 2026-04-23 18:52 | 29.16317 | -13.39441 | 10578 ft | 321 kts | 21° |
| 2026-04-23 18:52 | 29.18420 | -13.38336 | 10782 ft | 345 kts | 21° |
| 2026-04-23 18:53 | 29.20647 | -13.37155 | 11200 ft | 358 kts | 21° |
| 2026-04-23 18:53 | 29.22921 | -13.35938 | 11799 ft | 364 kts | 21° |
| 2026-04-23 18:53 | 29.25208 | -13.34646 | 12033 ft | 370 kts | 27° |
| 2026-04-23 18:53 | 29.27293 | -13.32905 | 12084 ft | 374 kts | 40° |
| 2026-04-23 18:54 | 29.29017 | -13.30712 | 12083 ft | 377 kts | 52° |
| 2026-04-23 18:54 | 29.30514 | -13.28243 | 12086 ft | 377 kts | 53° |
| 2026-04-23 18:54 | 29.32013 | -13.25772 | 12084 ft | 378 kts | 53° |
| 2026-04-23 18:54 | 29.33518 | -13.23305 | 12092 ft | 377 kts | 53° |
| 2026-04-23 18:55 | 29.35024 | -13.20843 | 12081 ft | 377 kts | 53° |
| 2026-04-23 18:55 | 29.36532 | -13.18377 | 12083 ft | 377 kts | 53° |
| 2026-04-23 18:55 | 29.38037 | -13.15915 | 12080 ft | 377 kts | 53° |
| 2026-04-23 18:55 | 29.39541 | -13.13446 | 12083 ft | 378 kts | 53° |
| 2026-04-23 18:56 | 29.40535 | -13.11810 | 12078 ft | 378 kts | 53° |
| 2026-04-23 18:56 | 29.42545 | -13.08498 | 12092 ft | 378 kts | 53° |
| 2026-04-23 18:56 | 29.44049 | -13.06022 | 12081 ft | 378 kts | 53° |
| 2026-04-23 18:56 | 29.45553 | -13.03547 | 12081 ft | 378 kts | 53° |
| 2026-04-23 18:57 | 29.47057 | -13.01071 | 12083 ft | 378 kts | 53° |
| 2026-04-23 18:57 | 29.48570 | -12.98575 | 12507 ft | 382 kts | 53° |
| 2026-04-23 18:57 | 29.50092 | -12.96062 | 13259 ft | 385 kts | 53° |
| 2026-04-23 18:57 | 29.51632 | -12.93520 | 13917 ft | 390 kts | 53° |
| 2026-04-23 18:58 | 29.53189 | -12.90948 | 14494 ft | 395 kts | 53° |
| 2026-04-23 18:58 | 29.54766 | -12.88345 | 15078 ft | 399 kts | 53° |
| 2026-04-23 18:58 | 29.56360 | -12.85716 | 15657 ft | 403 kts | 53° |
| 2026-04-23 18:58 | 29.57969 | -12.83057 | 16235 ft | 407 kts | 53° |
| 2026-04-23 18:59 | 29.59593 | -12.80369 | 16795 ft | 411 kts | 53° |
| 2026-04-23 18:59 | 29.61231 | -12.77652 | 17363 ft | 416 kts | 53° |
| 2026-04-23 18:59 | 29.62884 | -12.74906 | 17889 ft | 420 kts | 54° |
| 2026-04-23 18:59 | 29.64557 | -12.72126 | 18404 ft | 425 kts | 54° |
| 2026-04-23 19:00 | 29.66249 | -12.69317 | 18861 ft | 429 kts | 53° |
| 2026-04-23 19:00 | 29.67959 | -12.66484 | 19343 ft | 433 kts | 53° |
| 2026-04-23 19:00 | 29.69679 | -12.63628 | 19797 ft | 436 kts | 53° |
| 2026-04-23 19:00 | 29.71411 | -12.60745 | 20267 ft | 439 kts | 52° |
| 2026-04-23 19:01 | 29.73152 | -12.57840 | 20740 ft | 443 kts | 52° |
| 2026-04-23 19:01 | 29.74903 | -12.54909 | 21199 ft | 446 kts | 52° |
| 2026-04-23 19:01 | 29.76657 | -12.51951 | 21651 ft | 449 kts | 52° |
| 2026-04-23 19:01 | 29.78395 | -12.49008 | 22089 ft | 452 kts | 51° |
| 2026-04-23 19:02 | 29.79591 | -12.46979 | 22387 ft | 454 kts | 51° |
| 2026-04-23 19:02 | 29.81951 | -12.42971 | 22999 ft | 458 kts | 51° |
| 2026-04-23 19:02 | 29.83748 | -12.39927 | 23437 ft | 461 kts | 51° |
| 2026-04-23 19:02 | 29.85559 | -12.36861 | 23826 ft | 464 kts | 51° |
| 2026-04-23 19:03 | 29.87378 | -12.33773 | 24161 ft | 467 kts | 51° |
| 2026-04-23 19:03 | 29.89207 | -12.30664 | 24508 ft | 470 kts | 51° |
| 2026-04-23 19:03 | 29.91046 | -12.27535 | 24842 ft | 473 kts | 51° |
| 2026-04-23 19:03 | 29.92898 | -12.24385 | 25165 ft | 476 kts | 51° |
| 2026-04-23 19:04 | 29.94765 | -12.21217 | 25482 ft | 479 kts | 51° |
| 2026-04-23 19:04 | 29.96639 | -12.18032 | 25799 ft | 482 kts | 51° |
| 2026-04-23 19:04 | 29.98526 | -12.14823 | 26108 ft | 485 kts | 51° |
| 2026-04-23 19:04 | 30.00432 | -12.11610 | 26424 ft | 486 kts | 47° |
| 2026-04-23 19:05 | 30.02605 | -12.08653 | 26736 ft | 481 kts | 39° |
| 2026-04-23 19:05 | 30.05003 | -12.05961 | 27044 ft | 482 kts | 37° |
| 2026-04-23 19:05 | 30.07423 | -12.03263 | 27363 ft | 485 kts | 37° |
| 2026-04-23 19:05 | 30.09858 | -12.00550 | 27654 ft | 488 kts | 37° |
| 2026-04-23 19:06 | 30.12309 | -11.97822 | 27945 ft | 491 kts | 37° |
| 2026-04-23 19:06 | 30.14767 | -11.95075 | 28238 ft | 493 kts | 37° |
| 2026-04-23 19:06 | 30.17238 | -11.92308 | 28517 ft | 496 kts | 37° |
| 2026-04-23 19:06 | 30.19719 | -11.89523 | 28797 ft | 498 kts | 37° |
| 2026-04-23 19:07 | 30.22209 | -11.86721 | 29072 ft | 501 kts | 37° |
| 2026-04-23 19:07 | 30.24712 | -11.83903 | 29338 ft | 503 kts | 37° |
| 2026-04-23 19:07 | 30.27227 | -11.81073 | 29598 ft | 506 kts | 37° |
| 2026-04-23 19:07 | 30.29717 | -11.78266 | 29864 ft | 508 kts | 37° |
| 2026-04-23 19:08 | 30.32253 | -11.75402 | 30104 ft | 510 kts | 37° |
| 2026-04-23 19:08 | 30.34795 | -11.72533 | 30399 ft | 510 kts | 37° |
| 2026-04-23 19:08 | 30.37336 | -11.69668 | 30726 ft | 509 kts | 37° |
| 2026-04-23 19:08 | 30.39875 | -11.66811 | 31071 ft | 508 kts | 37° |
| 2026-04-23 19:09 | 30.42406 | -11.63958 | 31403 ft | 507 kts | 37° |
| 2026-04-23 19:09 | 30.44930 | -11.61109 | 31775 ft | 507 kts | 37° |
| 2026-04-23 19:09 | 30.47454 | -11.58254 | 32074 ft | 507 kts | 37° |
| 2026-04-23 19:09 | 30.49974 | -11.55397 | 32385 ft | 506 kts | 37° |
| 2026-04-23 19:10 | 30.52488 | -11.52540 | 32711 ft | 506 kts | 37° |
| 2026-04-23 19:10 | 30.54995 | -11.49685 | 33052 ft | 505 kts | 37° |
| 2026-04-23 19:10 | 30.57499 | -11.46841 | 33383 ft | 503 kts | 37° |
| 2026-04-23 19:10 | 30.60003 | -11.44001 | 33722 ft | 502 kts | 37° |
| 2026-04-23 19:11 | 30.62498 | -11.41169 | 34059 ft | 501 kts | 37° |
| 2026-04-23 19:11 | 30.64988 | -11.38339 | 34346 ft | 501 kts | 37° |
| 2026-04-23 19:11 | 30.67473 | -11.35513 | 34613 ft | 500 kts | 37° |
| 2026-04-23 19:11 | 30.69958 | -11.32685 | 34880 ft | 500 kts | 37° |
| 2026-04-23 19:12 | 30.71603 | -11.30814 | 35022 ft | 500 kts | 37° |
| 2026-04-23 19:12 | 30.74931 | -11.27028 | 35309 ft | 501 kts | 37° |
| 2026-04-23 19:12 | 30.77418 | -11.24193 | 35556 ft | 501 kts | 37° |
| 2026-04-23 19:12 | 30.79908 | -11.21349 | 35742 ft | 502 kts | 37° |
| 2026-04-23 19:13 | 30.82398 | -11.18498 | 35968 ft | 502 kts | 38° |
| 2026-04-23 19:13 | 30.84885 | -11.15645 | 36196 ft | 502 kts | 38° |
| 2026-04-23 19:13 | 30.87372 | -11.12790 | 36406 ft | 502 kts | 38° |
| 2026-04-23 19:13 | 30.89854 | -11.09939 | 36620 ft | 501 kts | 38° |
| 2026-04-23 19:14 | 30.92338 | -11.07089 | 36826 ft | 501 kts | 38° |
| 2026-04-23 19:14 | 30.94822 | -11.04240 | 37030 ft | 501 kts | 38° |
| 2026-04-23 19:14 | 30.97304 | -11.01394 | 37232 ft | 501 kts | 38° |
| 2026-04-23 19:14 | 30.99782 | -10.98549 | 37430 ft | 500 kts | 38° |
| 2026-04-23 19:15 | 31.02259 | -10.95697 | 37621 ft | 500 kts | 38° |
| 2026-04-23 19:15 | 31.04733 | -10.92847 | 37795 ft | 500 kts | 38° |
| 2026-04-23 19:15 | 31.07173 | -10.90035 | 38022 ft | 500 kts | 38° |
| 2026-04-23 19:16 | 31.12134 | -10.84320 | 38072 ft | 501 kts | 38° |
| 2026-04-23 19:16 | 31.17090 | -10.78596 | 38073 ft | 501 kts | 38° |
| 2026-04-23 19:17 | 31.24518 | -10.69979 | 38070 ft | 501 kts | 38° |
| 2026-04-23 19:17 | 31.29465 | -10.64234 | 38071 ft | 501 kts | 38° |
| 2026-04-23 19:18 | 31.34418 | -10.58486 | 38077 ft | 502 kts | 38° |
| 2026-04-23 19:18 | 31.39370 | -10.52732 | 38100 ft | 502 kts | 39° |
| 2026-04-23 19:19 | 31.46789 | -10.44091 | 38090 ft | 501 kts | 39° |
| 2026-04-23 19:20 | 31.53363 | -10.36411 | 38087 ft | 501 kts | 39° |
| 2026-04-23 19:20 | 31.58288 | -10.30629 | 38088 ft | 501 kts | 39° |
| 2026-04-23 19:21 | 31.65684 | -10.21956 | 38086 ft | 501 kts | 39° |
| 2026-04-23 19:22 | 31.70611 | -10.16172 | 38084 ft | 500 kts | 40° |
| 2026-04-23 19:22 | 31.77990 | -10.07487 | 38079 ft | 501 kts | 40° |
| 2026-04-23 19:23 | 31.82901 | -10.01680 | 38079 ft | 501 kts | 40° |
| 2026-04-23 19:24 | 31.90275 | -9.92964 | 38081 ft | 501 kts | 40° |
| 2026-04-23 19:24 | 31.97650 | -9.84234 | 38100 ft | 501 kts | 41° |
| 2026-04-23 19:25 | 32.07454 | -9.72569 | 38076 ft | 501 kts | 41° |
| 2026-04-23 19:26 | 32.14811 | -9.63808 | 38077 ft | 501 kts | 41° |
| 2026-04-23 19:27 | 32.27052 | -9.49167 | 38103 ft | 501 kts | 42° |
| 2026-04-23 19:28 | 32.36797 | -9.37478 | 38059 ft | 501 kts | 42° |
| 2026-04-23 19:29 | 32.44136 | -9.28644 | 38070 ft | 502 kts | 42° |
| 2026-04-23 19:30 | 32.51480 | -9.19787 | 38074 ft | 502 kts | 42° |
| 2026-04-23 19:31 | 32.58806 | -9.10906 | 38072 ft | 501 kts | 43° |
| 2026-04-23 19:31 | 32.63680 | -9.04993 | 38052 ft | 501 kts | 43° |
| 2026-04-23 19:32 | 32.68552 | -8.99083 | 38072 ft | 501 kts | 43° |
| 2026-04-23 19:32 | 32.73428 | -8.93167 | 38075 ft | 501 kts | 43° |
| 2026-04-23 19:33 | 32.78298 | -8.87241 | 38079 ft | 501 kts | 43° |
| 2026-04-23 19:33 | 32.85592 | -8.78327 | 38100 ft | 501 kts | 44° |
| 2026-04-23 19:34 | 32.90451 | -8.72379 | 38086 ft | 501 kts | 44° |
| 2026-04-23 19:35 | 32.97726 | -8.63454 | 38080 ft | 500 kts | 44° |
| 2026-04-23 19:35 | 33.02537 | -8.57553 | 38079 ft | 500 kts | 44° |
| 2026-04-23 19:36 | 33.07379 | -8.51603 | 38081 ft | 500 kts | 44° |
| 2026-04-23 19:36 | 33.12215 | -8.45646 | 38076 ft | 500 kts | 44° |
| 2026-04-23 19:37 | 33.17046 | -8.39683 | 38075 ft | 500 kts | 44° |
| 2026-04-23 19:37 | 33.22389 | -8.34475 | 38079 ft | 494 kts | 28° |
| 2026-04-23 19:38 | 33.28210 | -8.30110 | 38058 ft | 495 kts | 29° |
| 2026-04-23 19:38 | 33.34032 | -8.25718 | 38062 ft | 495 kts | 29° |
| 2026-04-23 19:39 | 33.39860 | -8.21315 | 38066 ft | 495 kts | 29° |
| 2026-04-23 19:39 | 33.45688 | -8.16907 | 38087 ft | 496 kts | 29° |
| 2026-04-23 19:40 | 33.51517 | -8.12499 | 38080 ft | 495 kts | 29° |
| 2026-04-23 19:40 | 33.57343 | -8.08085 | 38070 ft | 495 kts | 29° |
| 2026-04-23 19:41 | 33.63165 | -8.03667 | 38081 ft | 495 kts | 29° |
| 2026-04-23 19:41 | 33.68956 | -7.99268 | 38070 ft | 495 kts | 29° |
| 2026-04-23 19:42 | 33.74772 | -7.94834 | 38088 ft | 495 kts | 30° |
| 2026-04-23 19:42 | 33.80586 | -7.90389 | 38078 ft | 495 kts | 30° |
| 2026-04-23 19:43 | 33.86396 | -7.85942 | 38088 ft | 495 kts | 30° |
| 2026-04-23 19:43 | 33.92205 | -7.81492 | 38082 ft | 495 kts | 30° |
| 2026-04-23 19:44 | 33.98012 | -7.77042 | 38112 ft | 495 kts | 31° |
| 2026-04-23 19:44 | 34.03819 | -7.72578 | 38099 ft | 495 kts | 31° |
| 2026-04-23 19:45 | 34.09622 | -7.68114 | 38094 ft | 495 kts | 31° |
| 2026-04-23 19:45 | 34.15425 | -7.63638 | 38098 ft | 495 kts | 31° |
| 2026-04-23 19:46 | 34.21225 | -7.59159 | 38066 ft | 495 kts | 31° |
| 2026-04-23 19:46 | 34.27017 | -7.54682 | 38112 ft | 494 kts | 31° |
| 2026-04-23 19:47 | 34.31819 | -7.50967 | 38109 ft | 493 kts | 31° |
| 2026-04-23 19:47 | 34.38526 | -7.45769 | 38101 ft | 492 kts | 31° |
| 2026-04-23 19:48 | 34.44287 | -7.41288 | 38098 ft | 492 kts | 31° |
| 2026-04-23 19:48 | 34.50042 | -7.36811 | 38096 ft | 491 kts | 31° |
| 2026-04-23 19:49 | 34.55793 | -7.32325 | 38103 ft | 491 kts | 32° |
| 2026-04-23 19:49 | 34.61537 | -7.27834 | 38097 ft | 491 kts | 32° |
| 2026-04-23 19:50 | 34.67278 | -7.23342 | 38100 ft | 491 kts | 32° |
| 2026-04-23 19:50 | 34.73019 | -7.18851 | 38079 ft | 490 kts | 31° |
| 2026-04-23 19:51 | 34.78750 | -7.14350 | 38121 ft | 490 kts | 32° |
| 2026-04-23 19:51 | 34.84471 | -7.09836 | 38112 ft | 490 kts | 32° |
| 2026-04-23 19:52 | 34.90189 | -7.05332 | 38100 ft | 489 kts | 32° |
| 2026-04-23 19:52 | 34.95910 | -7.00832 | 38100 ft | 489 kts | 32° |
| 2026-04-23 19:53 | 35.01623 | -6.96328 | 38087 ft | 489 kts | 32° |
| 2026-04-23 19:53 | 35.07331 | -6.91805 | 38060 ft | 489 kts | 32° |
| 2026-04-23 19:53 | 35.10144 | -6.89569 | 37769 ft | 489 kts | 32° |
| 2026-04-23 19:54 | 35.12994 | -6.87302 | 37241 ft | 488 kts | 32° |
| 2026-04-23 19:54 | 35.15838 | -6.85043 | 36719 ft | 488 kts | 33° |
| 2026-04-23 19:54 | 35.18688 | -6.82780 | 36175 ft | 488 kts | 33° |
| 2026-04-23 19:54 | 35.21531 | -6.80521 | 35695 ft | 488 kts | 33° |
| 2026-04-23 19:55 | 35.24380 | -6.78253 | 35194 ft | 489 kts | 33° |
| 2026-04-23 19:55 | 35.27230 | -6.75983 | 34718 ft | 490 kts | 33° |
| 2026-04-23 19:55 | 35.30090 | -6.73703 | 34245 ft | 491 kts | 33° |
| 2026-04-23 19:55 | 35.32954 | -6.71415 | 33735 ft | 492 kts | 33° |
| 2026-04-23 19:56 | 35.35824 | -6.69128 | 33199 ft | 492 kts | 33° |
| 2026-04-23 19:56 | 35.38709 | -6.66867 | 32673 ft | 493 kts | 33° |
| 2026-04-23 19:56 | 35.41608 | -6.64632 | 32151 ft | 493 kts | 32° |
| 2026-04-23 19:56 | 35.44522 | -6.62408 | 31640 ft | 493 kts | 32° |
| 2026-04-23 19:57 | 35.47440 | -6.60190 | 31141 ft | 494 kts | 32° |
| 2026-04-23 19:57 | 35.50349 | -6.57977 | 30655 ft | 491 kts | 33° |
| 2026-04-23 19:57 | 35.53238 | -6.55770 | 30173 ft | 487 kts | 33° |
| 2026-04-23 19:57 | 35.56097 | -6.53574 | 29612 ft | 483 kts | 33° |
| 2026-04-23 19:58 | 35.58926 | -6.51385 | 29063 ft | 479 kts | 33° |
| 2026-04-23 19:58 | 35.61728 | -6.49207 | 28519 ft | 474 kts | 33° |
| 2026-04-23 19:58 | 35.64504 | -6.47045 | 27978 ft | 470 kts | 33° |
| 2026-04-23 19:58 | 35.67254 | -6.44904 | 27460 ft | 466 kts | 33° |
| 2026-04-23 19:59 | 35.69980 | -6.42781 | 26992 ft | 462 kts | 33° |
| 2026-04-23 19:59 | 35.72685 | -6.40678 | 26537 ft | 458 kts | 33° |
| 2026-04-23 19:59 | 35.75371 | -6.38588 | 26082 ft | 455 kts | 33° |
| 2026-04-23 19:59 | 35.78036 | -6.36512 | 25646 ft | 452 kts | 33° |
| 2026-04-23 20:00 | 35.80684 | -6.34448 | 25213 ft | 449 kts | 33° |
| 2026-04-23 20:00 | 35.83318 | -6.32395 | 24784 ft | 447 kts | 33° |
| 2026-04-23 20:00 | 35.85914 | -6.30310 | 24360 ft | 444 kts | 34° |
| 2026-04-23 20:00 | 35.88423 | -6.28201 | 23950 ft | 441 kts | 36° |
| 2026-04-23 20:01 | 35.90928 | -6.26035 | 23527 ft | 438 kts | 36° |
| 2026-04-23 20:01 | 35.93406 | -6.23866 | 23034 ft | 435 kts | 36° |
| 2026-04-23 20:01 | 35.95868 | -6.21712 | 22557 ft | 432 kts | 36° |
| 2026-04-23 20:01 | 35.98319 | -6.19582 | 22084 ft | 429 kts | 36° |
| 2026-04-23 20:02 | 36.00756 | -6.17478 | 21617 ft | 426 kts | 36° |
| 2026-04-23 20:02 | 36.03181 | -6.15394 | 21163 ft | 423 kts | 36° |
| 2026-04-23 20:02 | 36.05592 | -6.13329 | 20709 ft | 420 kts | 36° |
| 2026-04-23 20:02 | 36.07988 | -6.11280 | 20265 ft | 418 kts | 36° |
| 2026-04-23 20:03 | 36.10370 | -6.09242 | 19825 ft | 415 kts | 36° |
| 2026-04-23 20:03 | 36.12734 | -6.07214 | 19386 ft | 413 kts | 36° |
| 2026-04-23 20:03 | 36.15086 | -6.05191 | 18960 ft | 410 kts | 36° |
| 2026-04-23 20:03 | 36.17422 | -6.03173 | 18542 ft | 408 kts | 36° |
| 2026-04-23 20:04 | 36.19741 | -6.01169 | 18149 ft | 406 kts | 36° |
| 2026-04-23 20:04 | 36.22062 | -5.99196 | 17754 ft | 404 kts | 33° |
| 2026-04-23 20:04 | 36.24523 | -5.97546 | 17365 ft | 401 kts | 24° |
| 2026-04-23 20:04 | 36.27129 | -5.96342 | 16973 ft | 399 kts | 16° |
| 2026-04-23 20:05 | 36.28885 | -5.95689 | 16720 ft | 397 kts | 16° |
| 2026-04-23 20:05 | 36.32411 | -5.94367 | 16217 ft | 394 kts | 17° |
| 2026-04-23 20:05 | 36.35030 | -5.93381 | 15839 ft | 392 kts | 17° |
| 2026-04-23 20:05 | 36.37629 | -5.92398 | 15477 ft | 389 kts | 17° |
| 2026-04-23 20:06 | 36.40213 | -5.91417 | 15109 ft | 387 kts | 17° |
| 2026-04-23 20:06 | 36.42781 | -5.90440 | 14750 ft | 385 kts | 17° |
| 2026-04-23 20:06 | 36.45291 | -5.89484 | 14396 ft | 381 kts | 17° |
| 2026-04-23 20:06 | 36.47810 | -5.88525 | 14042 ft | 377 kts | 17° |
| 2026-04-23 20:07 | 36.50306 | -5.87579 | 13676 ft | 372 kts | 17° |
| 2026-04-23 20:07 | 36.52767 | -5.86649 | 13282 ft | 368 kts | 17° |
| 2026-04-23 20:07 | 36.55198 | -5.85731 | 12895 ft | 363 kts | 17° |
| 2026-04-23 20:07 | 36.57602 | -5.84823 | 12502 ft | 359 kts | 17° |
| 2026-04-23 20:08 | 36.59983 | -5.83924 | 12115 ft | 355 kts | 17° |
| 2026-04-23 20:08 | 36.62336 | -5.83034 | 11748 ft | 351 kts | 17° |
| 2026-04-23 20:08 | 36.64660 | -5.82152 | 11381 ft | 348 kts | 17° |
| 2026-04-23 20:08 | 36.66958 | -5.81276 | 11025 ft | 344 kts | 17° |
| 2026-04-23 20:09 | 36.69235 | -5.80405 | 10656 ft | 341 kts | 17° |
| 2026-04-23 20:09 | 36.71490 | -5.79543 | 10297 ft | 337 kts | 17° |
| 2026-04-23 20:09 | 36.73715 | -5.78692 | 10052 ft | 330 kts | 17° |
| 2026-04-23 20:09 | 36.75866 | -5.77873 | 10030 ft | 316 kts | 17° |
| 2026-04-23 20:10 | 36.77243 | -5.77348 | 10038 ft | 311 kts | 17° |
| 2026-04-23 20:10 | 36.79996 | -5.76295 | 9897 ft | 305 kts | 17° |
| 2026-04-23 20:10 | 36.81998 | -5.75528 | 9774 ft | 296 kts | 17° |
| 2026-04-23 20:10 | 36.83937 | -5.74784 | 9642 ft | 286 kts | 17° |
| 2026-04-23 20:11 | 36.85807 | -5.74065 | 9510 ft | 277 kts | 17° |
| 2026-04-23 20:11 | 36.87627 | -5.73366 | 9385 ft | 271 kts | 17° |
| 2026-04-23 20:11 | 36.88818 | -5.72911 | 9295 ft | 269 kts | 17° |
| 2026-04-23 20:11 | 36.90605 | -5.72228 | 9159 ft | 268 kts | 17° |
| 2026-04-23 20:12 | 36.92387 | -5.71545 | 9038 ft | 267 kts | 17° |
| 2026-04-23 20:12 | 36.94164 | -5.70864 | 8904 ft | 267 kts | 17° |
| 2026-04-23 20:12 | 36.95936 | -5.70183 | 8777 ft | 266 kts | 17° |
| 2026-04-23 20:12 | 36.97703 | -5.69503 | 8648 ft | 265 kts | 17° |
| 2026-04-23 20:13 | 36.99467 | -5.68828 | 8527 ft | 263 kts | 17° |
| 2026-04-23 20:13 | 37.01192 | -5.68167 | 8398 ft | 256 kts | 18° |
| 2026-04-23 20:13 | 37.02887 | -5.67512 | 8273 ft | 255 kts | 18° |
| 2026-04-23 20:13 | 37.04578 | -5.66862 | 8149 ft | 254 kts | 18° |
| 2026-04-23 20:14 | 37.06264 | -5.66215 | 8023 ft | 253 kts | 18° |
| 2026-04-23 20:14 | 37.07948 | -5.65568 | 7903 ft | 253 kts | 18° |
| 2026-04-23 20:14 | 37.09628 | -5.64921 | 7779 ft | 252 kts | 18° |
| 2026-04-23 20:14 | 37.11301 | -5.64277 | 7639 ft | 252 kts | 19° |
| 2026-04-23 20:15 | 37.13000 | -5.63622 | 7222 ft | 256 kts | 19° |
| 2026-04-23 20:15 | 37.14685 | -5.62975 | 6979 ft | 251 kts | 20° |
| 2026-04-23 20:15 | 37.16338 | -5.62343 | 6733 ft | 246 kts | 19° |
| 2026-04-23 20:15 | 37.17952 | -5.61671 | 6501 ft | 242 kts | 29° |
| 2026-04-23 20:16 | 37.19221 | -5.60383 | 6250 ft | 233 kts | 58° |
| 2026-04-23 20:16 | 37.19858 | -5.58574 | 5998 ft | 225 kts | 83° |
| 2026-04-23 20:16 | 37.19803 | -5.56668 | 5750 ft | 222 kts | 108° |
| 2026-04-23 20:16 | 37.19101 | -5.54980 | 5504 ft | 219 kts | 131° |
| 2026-04-23 20:17 | 37.17895 | -5.53836 | 5252 ft | 220 kts | 156° |
| 2026-04-23 20:17 | 37.16397 | -5.53460 | 5063 ft | 223 kts | 181° |
| 2026-04-23 20:17 | 37.14867 | -5.53840 | 5007 ft | 226 kts | 194° |
| 2026-04-23 20:17 | 37.13469 | -5.54748 | 5011 ft | 231 kts | 220° |
| 2026-04-23 20:18 | 37.12520 | -5.56378 | 5007 ft | 235 kts | 247° |
| 2026-04-23 20:18 | 37.12260 | -5.58402 | 5011 ft | 240 kts | 275° |
| 2026-04-23 20:18 | 37.12779 | -5.60368 | 5012 ft | 241 kts | 304° |
| 2026-04-23 20:18 | 37.13972 | -5.61806 | 5006 ft | 239 kts | 333° |
| 2026-04-23 20:19 | 37.15548 | -5.62384 | 5012 ft | 236 kts | 1° |
| 2026-04-23 20:19 | 37.17146 | -5.62062 | 5012 ft | 233 kts | 18° |
| 2026-04-23 20:19 | 37.18738 | -5.61662 | 5009 ft | 235 kts | 9° |
| 2026-04-23 20:19 | 37.20375 | -5.61498 | 5011 ft | 236 kts | 6° |
| 2026-04-23 20:20 | 37.22018 | -5.61418 | 5010 ft | 236 kts | 4° |
| 2026-04-23 20:20 | 37.23657 | -5.61354 | 5011 ft | 236 kts | 4° |
| 2026-04-23 20:20 | 37.25302 | -5.61283 | 5006 ft | 236 kts | 5° |
| 2026-04-23 20:20 | 37.26945 | -5.61199 | 5013 ft | 236 kts | 5° |
| 2026-04-23 20:21 | 37.28600 | -5.61101 | 4801 ft | 237 kts | 5° |
| 2026-04-23 20:21 | 37.30238 | -5.60999 | 4608 ft | 234 kts | 5° |
| 2026-04-23 20:21 | 37.31866 | -5.60892 | 4441 ft | 234 kts | 5° |
| 2026-04-23 20:21 | 37.33488 | -5.60784 | 4295 ft | 233 kts | 5° |
| 2026-04-23 20:22 | 37.35084 | -5.60676 | 4160 ft | 233 kts | 4° |
| 2026-04-23 20:22 | 37.36697 | -5.60567 | 4012 ft | 230 kts | 4° |
| 2026-04-23 20:22 | 37.38273 | -5.60515 | 3860 ft | 224 kts | 353° |
| 2026-04-23 20:22 | 37.39739 | -5.61051 | 3707 ft | 217 kts | 330° |
| 2026-04-23 20:23 | 37.40899 | -5.62201 | 3558 ft | 210 kts | 308° |
| 2026-04-23 20:23 | 37.41623 | -5.63759 | 3415 ft | 205 kts | 287° |
| 2026-04-23 20:23 | 37.41845 | -5.65495 | 3269 ft | 199 kts | 268° |
| 2026-04-23 20:23 | 37.41840 | -5.67228 | 3165 ft | 198 kts | 268° |
| 2026-04-23 20:24 | 37.41838 | -5.68953 | 2946 ft | 197 kts | 267° |
| 2026-04-23 20:24 | 37.41836 | -5.70671 | 2690 ft | 195 kts | 267° |
| 2026-04-23 20:24 | 37.41834 | -5.72357 | 2452 ft | 189 kts | 266° |
| 2026-04-23 20:24 | 37.41833 | -5.73952 | 2212 ft | 176 kts | 266° |
| 2026-04-23 20:25 | 37.41830 | -5.75443 | 1974 ft | 166 kts | 265° |
| 2026-04-23 20:25 | 37.41828 | -5.76834 | 1787 ft | 150 kts | 266° |
| 2026-04-23 20:25 | 37.41826 | -5.78093 | 1576 ft | 139 kts | 267° |
| 2026-04-23 20:25 | 37.41822 | -5.79291 | 1388 ft | 137 kts | 265° |
| 2026-04-23 20:26 | 37.41819 | -5.80474 | 1209 ft | 133 kts | 265° |
| 2026-04-23 20:26 | 37.41816 | -5.81642 | 1038 ft | 133 kts | 266° |
| 2026-04-23 20:26 | 37.41812 | -5.82820 | 861 ft | 136 kts | 266° |
| 2026-04-23 20:26 | 37.41810 | -5.83996 | 682 ft | 133 kts | 266° |
| 2026-04-23 20:27 | 37.41806 | -5.85161 | 512 ft | 135 kts | 266° |
| 2026-04-23 20:27 | 37.41804 | -5.86340 | 331 ft | 135 kts | 267° |
| 2026-04-23 20:27 | 37.41804 | -5.87523 | 139 ft | 135 kts | 265° |
| 2026-04-23 20:27 | 37.41793 | -5.88592 | 105 ft | 102 kts | 269° |
| 2026-04-23 20:28 | 37.41798 | -5.89149 | 100 ft | 29 kts | 277° |
| 2026-04-23 20:28 | 37.41894 | -5.89290 | 99 ft | 15 kts | 328° |
| 2026-04-23 20:28 | 37.41960 | -5.89341 | 100 ft | 9 kts | 328° |
| 2026-04-23 20:28 | 37.42006 | -5.89387 | 99 ft | 8 kts | 315° |
| 2026-04-23 20:29 | 37.42046 | -5.89439 | 99 ft | 8 kts | 315° |
| 2026-04-23 20:29 | 37.42083 | -5.89487 | 101 ft | 7 kts | 314° |
| 2026-04-23 20:29 | 37.42122 | -5.89536 | 97 ft | 9 kts | 314° |
| 2026-04-23 20:29 | 37.42166 | -5.89593 | 95 ft | 10 kts | 314° |
| 2026-04-23 20:30 | 37.42213 | -5.89654 | 94 ft | 10 kts | 314° |
| 2026-04-23 20:30 | 37.42245 | -5.89781 | 94 ft | 9 kts | 226° |
| 2026-04-23 20:30 | 37.42244 | -5.89841 | 97 ft | 8 kts | 318° |
| 2026-04-23 20:31 | 37.42277 | -5.89881 | 96 ft | 4 kts | 314° |
| 2026-04-23 20:31 | 37.42280 | -5.89885 | 94 ft | 0 kts | 314° |